createdAt,value
2018-05-12T00:01:59.628Z,72.84
2018-05-12T00:05:02.951Z,72.62
2018-05-12T00:08:06.281Z,72.25
2018-05-12T00:11:09.609Z,72.77
2018-05-12T00:14:12.917Z,73.22
2018-05-12T00:17:16.240Z,73.43
2018-05-12T00:20:19.544Z,73.46
2018-05-12T00:23:22.881Z,73.54
2018-05-12T00:26:26.189Z,73.32
2018-05-12T00:29:29.517Z,73.07
2018-05-12T00:32:33.593Z,73.08
2018-05-12T00:35:36.918Z,72.78
2018-05-12T00:38:41.004Z,72.82
2018-05-12T00:41:44.322Z,73.06
2018-05-12T00:44:47.648Z,73.13
2018-05-12T00:47:50.968Z,73.44
2018-05-12T00:50:54.270Z,73.68
2018-05-12T00:53:57.597Z,73.56
2018-05-12T00:57:00.905Z,73.34
2018-05-12T01:00:04.230Z,73.02
2018-05-12T01:03:07.555Z,72.73
2018-05-12T01:06:10.865Z,71.85
2018-05-12T01:09:14.209Z,71.95
2018-05-12T01:12:18.278Z,72.06
2018-05-12T01:15:21.610Z,71.92
2018-05-12T01:18:25.700Z,71.93
2018-05-12T01:21:29.000Z,71.87
2018-05-12T01:24:32.329Z,71.59
2018-05-12T01:27:36.397Z,71.46
2018-05-12T01:30:39.716Z,70.78
2018-05-12T01:33:43.031Z,70.76
2018-05-12T01:36:47.161Z,70.99
2018-05-12T01:39:50.494Z,71.16
2018-05-12T01:42:53.808Z,71.46
2018-05-12T01:45:57.136Z,72.10
2018-05-12T01:49:01.218Z,71.94
2018-05-12T01:52:04.577Z,71.65
2018-05-12T01:55:07.886Z,71.52
2018-05-12T01:58:11.209Z,71.76
2018-05-12T02:01:14.546Z,71.63
2018-05-12T02:04:18.637Z,71.35
2018-05-12T02:07:22.794Z,71.01
2018-05-12T02:10:26.061Z,71.24
2018-05-12T02:13:30.140Z,71.10
2018-05-12T02:16:33.461Z,70.97
2018-05-12T02:19:36.807Z,70.82
2018-05-12T02:22:40.113Z,71.14
2018-05-12T02:25:43.437Z,71.23
2018-05-12T02:28:46.749Z,71.40
2018-05-12T02:31:50.082Z,71.10
2018-05-12T02:34:53.393Z,71.17
2018-05-12T02:37:56.717Z,71.00
2018-05-12T02:41:00.034Z,70.56
2018-05-12T02:44:03.341Z,70.33
2018-05-12T02:47:07.419Z,69.97
2018-05-12T02:50:10.725Z,70.01
2018-05-12T02:53:14.054Z,69.87
2018-05-12T02:59:20.749Z,69.97
2018-05-12T03:02:24.822Z,70.34
2018-05-12T03:05:28.144Z,70.05
2018-05-12T03:08:31.472Z,70.19
2018-05-12T03:11:34.776Z,70.09
2018-05-12T03:14:38.094Z,70.17
2018-05-12T03:17:41.407Z,70.01
2018-05-12T03:20:44.761Z,70.21
2018-05-12T03:23:48.078Z,70.69
2018-05-12T03:26:51.404Z,70.38
2018-05-12T03:29:54.736Z,70.65
2018-05-12T03:32:58.814Z,71.34
2018-05-12T03:36:02.136Z,71.54
2018-05-12T03:39:05.439Z,71.57
2018-05-12T03:42:09.526Z,71.74
2018-05-12T03:45:12.828Z,71.71
2018-05-12T03:48:16.594Z,71.93
2018-05-12T03:51:19.912Z,72.20
2018-05-12T03:54:23.208Z,72.26
2018-05-12T03:57:26.536Z,72.49
2018-05-12T04:00:30.600Z,72.57
2018-05-12T04:03:33.922Z,72.93
2018-05-12T04:06:55.021Z,72.98
2018-05-12T04:10:16.125Z,73.09
2018-05-12T04:13:20.224Z,73.57
2018-05-12T04:16:23.524Z,73.75
2018-05-12T04:19:26.858Z,73.86
2018-05-12T04:22:30.165Z,74.19
2018-05-12T04:25:33.498Z,74.59
2018-05-12T04:28:36.806Z,75.04
2018-05-12T04:31:40.124Z,75.02
2018-05-12T04:34:43.441Z,75.21
2018-05-12T04:37:46.756Z,75.30
2018-05-12T04:40:50.076Z,75.43
2018-05-12T04:43:54.152Z,75.56
2018-05-12T04:46:57.477Z,75.56
2018-05-12T04:50:01.558Z,75.54
2018-05-12T04:53:04.889Z,75.73
2018-05-12T04:56:08.958Z,75.66
2018-05-12T04:59:12.289Z,75.28
2018-05-12T05:02:15.609Z,75.45
2018-05-12T05:05:19.688Z,75.65
2018-05-12T05:08:23.024Z,75.63
2018-05-12T05:11:26.333Z,75.95
2018-05-12T05:14:29.658Z,76.00
2018-05-12T05:17:32.969Z,75.91
2018-05-12T05:20:36.298Z,76.17
2018-05-12T05:23:40.385Z,76.17
2018-05-12T05:26:43.714Z,76.60
2018-05-12T05:29:47.789Z,76.69
2018-05-12T05:32:51.114Z,76.73
2018-05-12T05:35:54.429Z,76.37
2018-05-12T05:38:57.755Z,76.56
2018-05-12T05:42:01.070Z,76.71
2018-05-12T05:45:04.419Z,76.45
2018-05-12T05:48:07.725Z,76.35
2018-05-12T05:51:11.051Z,76.18
2018-05-12T05:54:15.322Z,76.23
2018-05-12T05:57:18.865Z,76.30
2018-05-12T06:00:22.322Z,76.14
2018-05-12T06:03:26.420Z,75.84
2018-05-12T06:06:30.661Z,75.73
2018-05-12T06:09:34.318Z,75.46
2018-05-12T06:12:37.677Z,75.25
2018-05-12T06:15:41.062Z,74.91
2018-05-12T06:18:44.649Z,74.82
2018-05-12T06:21:48.760Z,73.92
2018-05-12T06:24:52.554Z,73.28
2018-05-12T06:27:56.046Z,72.35
2018-05-12T06:30:59.639Z,72.49
2018-05-12T06:34:02.940Z,72.32
2018-05-12T06:37:06.287Z,72.30
2018-05-12T06:40:09.593Z,72.69
2018-05-12T06:43:13.205Z,73.12
2018-05-12T06:46:16.913Z,73.57
2018-05-12T06:49:20.330Z,73.88
2018-05-12T06:52:23.696Z,73.03
2018-05-12T06:55:27.232Z,73.04
2018-05-12T06:58:30.566Z,73.13
2018-05-12T07:01:34.717Z,72.61
2018-05-12T07:04:38.076Z,72.94
2018-05-12T07:07:41.578Z,72.36
2018-05-12T07:10:45.683Z,71.87
2018-05-12T07:13:49.132Z,71.61
2018-05-12T07:16:52.478Z,71.34
2018-05-12T07:19:55.844Z,71.86
2018-05-12T07:22:59.196Z,71.77
2018-05-12T07:26:03.270Z,71.42
2018-05-12T07:29:06.598Z,70.99
2018-05-12T07:32:09.910Z,71.98
2018-05-12T07:35:13.985Z,71.29
2018-05-12T07:38:17.310Z,70.97
2018-05-12T07:41:21.389Z,70.82
2018-05-12T07:44:24.718Z,71.53
2018-05-12T07:47:28.824Z,71.22
2018-05-12T07:50:32.138Z,70.55
2018-05-12T07:53:36.233Z,70.80
2018-05-12T07:56:39.564Z,70.90
2018-05-12T07:59:42.897Z,70.16
2018-05-12T08:02:46.202Z,70.85
2018-05-12T08:05:49.525Z,70.46
2018-05-12T08:08:52.830Z,69.55
2018-05-12T08:11:56.920Z,69.64
2018-05-12T08:15:00.275Z,69.97
2018-05-12T08:18:03.814Z,70.33
2018-05-12T08:21:07.289Z,70.15
2018-05-12T08:24:10.600Z,69.76
2018-05-12T08:27:13.961Z,69.79
2018-05-12T08:30:17.392Z,69.58
2018-05-12T08:33:20.877Z,69.82
2018-05-12T08:36:24.331Z,69.57
2018-05-12T08:39:29.260Z,69.97
2018-05-12T08:42:32.809Z,69.96
2018-05-12T08:45:36.172Z,69.88
2018-05-12T08:48:40.305Z,69.81
2018-05-12T08:51:44.443Z,69.21
2018-05-12T08:54:48.645Z,69.38
2018-05-12T08:57:52.001Z,69.29
2018-05-12T09:00:55.615Z,69.52
2018-05-12T09:03:58.984Z,69.14
2018-05-12T09:07:02.333Z,68.85
2018-05-12T09:10:05.829Z,68.34
2018-05-12T09:13:09.917Z,68.50
2018-05-12T09:16:13.367Z,67.82
2018-05-12T09:19:16.722Z,67.37
2018-05-12T09:22:20.084Z,67.46
2018-05-12T09:25:23.421Z,66.93
2018-05-12T09:28:27.834Z,68.12
2018-05-12T09:31:31.169Z,68.16
2018-05-12T09:34:34.477Z,67.23
2018-05-12T09:37:37.811Z,66.01
2018-05-12T09:40:41.127Z,65.97
2018-05-12T09:43:45.293Z,65.23
2018-05-12T09:46:48.622Z,65.49
2018-05-12T09:49:51.954Z,65.57
2018-05-12T09:52:56.031Z,64.83
2018-05-12T09:55:59.350Z,64.48
2018-05-12T09:59:03.518Z,64.30
2018-05-12T10:02:06.837Z,65.87
2018-05-12T10:05:10.136Z,63.68
2018-05-12T10:08:13.444Z,62.14
2018-05-12T10:11:16.761Z,62.75
2018-05-12T10:14:20.845Z,61.83
2018-05-12T10:17:24.165Z,62.35
2018-05-12T10:20:28.242Z,61.30
2018-05-12T10:23:31.565Z,61.27
2018-05-12T10:26:34.885Z,62.06
2018-05-12T10:29:38.985Z,62.05
2018-05-12T10:32:43.052Z,61.41
2018-05-12T10:35:46.372Z,61.52
2018-05-12T10:38:49.683Z,61.19
2018-05-12T10:41:53.778Z,61.08
2018-05-12T10:44:57.101Z,60.80
2018-05-12T10:48:00.417Z,59.90
2018-05-12T10:51:04.500Z,59.56
2018-05-12T10:54:07.822Z,60.16
2018-05-12T10:57:11.910Z,59.43
2018-05-12T11:00:15.229Z,59.29
2018-05-12T11:03:19.333Z,59.61
2018-05-12T11:06:22.638Z,59.75
2018-05-12T11:09:26.749Z,58.05
2018-05-12T11:12:30.057Z,56.91
2018-05-12T11:15:33.365Z,57.34
2018-05-12T11:18:36.669Z,57.03
2018-05-12T11:21:40.025Z,56.67
2018-05-12T11:24:43.305Z,56.83
2018-05-12T11:27:46.617Z,56.79
2018-05-12T11:30:49.924Z,56.26
2018-05-12T11:33:53.232Z,55.57
2018-05-12T11:36:57.297Z,54.98
2018-05-12T11:40:00.615Z,56.01
2018-05-12T11:43:03.922Z,55.91
2018-05-12T11:46:07.249Z,56.40
2018-05-12T11:49:10.553Z,57.01
2018-05-12T11:52:13.877Z,57.19
2018-05-12T11:55:17.185Z,58.24
2018-05-12T11:58:20.523Z,58.25
2018-05-12T12:01:24.600Z,58.67
2018-05-12T12:04:27.938Z,60.35
2018-05-12T12:07:32.004Z,58.51
2018-05-12T12:10:35.318Z,57.70
2018-05-12T12:13:38.643Z,57.94
2018-05-12T12:16:42.801Z,58.64
2018-05-12T12:19:46.835Z,59.17
2018-05-12T12:22:50.172Z,58.83
2018-05-12T12:25:53.485Z,59.44
2018-05-12T12:28:56.809Z,58.32
2018-05-12T12:32:00.107Z,58.78
2018-05-12T12:35:03.425Z,57.29
2018-05-12T12:38:06.729Z,57.37
2018-05-12T12:41:10.059Z,57.71
2018-05-12T12:44:14.277Z,58.96
2018-05-12T12:47:17.609Z,58.84
2018-05-12T12:50:20.928Z,58.24
2018-05-12T12:53:24.246Z,57.94
2018-05-12T12:56:28.432Z,57.88
2018-05-12T12:59:31.742Z,57.00
2018-05-12T13:02:35.116Z,56.69
2018-05-12T13:05:38.443Z,56.28
2018-05-12T13:08:41.749Z,55.81
2018-05-12T13:11:45.836Z,57.17
2018-05-12T13:14:49.149Z,55.08
2018-05-12T13:17:52.479Z,54.62
2018-05-12T13:20:55.794Z,55.09
2018-05-12T13:23:59.121Z,54.68
2018-05-12T13:27:02.549Z,54.81
2018-05-12T13:30:06.692Z,54.70
2018-05-12T13:33:10.018Z,56.18
2018-05-12T13:36:13.542Z,56.08
2018-05-12T13:39:16.882Z,55.20
2018-05-12T13:42:20.209Z,54.57
2018-05-12T13:45:23.528Z,55.54
2018-05-12T13:48:26.853Z,55.94
2018-05-12T13:51:30.922Z,53.66
2018-05-12T13:54:34.237Z,52.85
2018-05-12T13:57:37.538Z,52.44
2018-05-12T14:00:40.862Z,50.65
2018-05-12T14:03:44.946Z,50.47
2018-05-12T14:06:48.266Z,51.21
2018-05-12T14:09:52.343Z,51.29
2018-05-12T14:12:55.664Z,50.28
2018-05-12T14:15:58.970Z,51.59
2018-05-12T14:19:03.145Z,49.90
2018-05-12T14:22:06.389Z,50.72
2018-05-12T14:25:10.457Z,49.51
2018-05-12T14:28:13.778Z,49.51
2018-05-12T14:31:17.090Z,47.66
2018-05-12T14:34:21.277Z,47.34
2018-05-12T14:37:24.580Z,49.13
2018-05-12T14:40:27.930Z,48.90
2018-05-12T14:43:31.237Z,47.66
2018-05-12T14:46:34.560Z,48.52
2018-05-12T14:49:37.871Z,48.68
2018-05-12T14:52:41.203Z,48.38
2018-05-12T14:55:44.514Z,49.36
2018-05-12T14:58:48.606Z,49.94
2018-05-12T15:01:52.694Z,49.53
2018-05-12T15:04:56.004Z,49.77
2018-05-12T15:07:59.315Z,50.62
2018-05-12T15:11:03.433Z,50.76
2018-05-12T15:14:07.511Z,50.64
2018-05-12T15:17:10.832Z,50.56
2018-05-12T15:20:14.913Z,50.74
2018-05-12T15:23:18.270Z,51.77
2018-05-12T15:26:21.594Z,52.62
2018-05-12T15:29:24.916Z,53.43
2018-05-12T15:32:28.231Z,53.38
2018-05-12T15:35:32.318Z,54.12
2018-05-12T15:38:35.640Z,55.12
2018-05-12T15:41:39.749Z,54.42
2018-05-12T15:44:43.061Z,54.46
2018-05-12T15:47:47.155Z,54.61
2018-05-12T15:50:50.485Z,53.90
2018-05-12T15:53:54.560Z,52.64
2018-05-12T15:56:57.882Z,52.07
2018-05-12T16:00:01.973Z,52.15
2018-05-12T16:03:05.298Z,51.73
2018-05-12T16:06:09.401Z,49.53
2018-05-12T16:09:13.485Z,50.21
2018-05-12T16:12:16.911Z,50.73
2018-05-12T16:15:20.156Z,52.26
2018-05-12T16:18:24.249Z,51.80
2018-05-12T16:21:27.562Z,52.85
2018-05-12T16:24:30.877Z,53.94
2018-05-12T16:27:34.191Z,54.76
2018-05-12T16:30:37.512Z,55.43
2018-05-12T16:33:41.587Z,55.18
2018-05-12T16:36:44.906Z,55.02
2018-05-12T16:39:48.220Z,54.78
2018-05-12T16:42:52.313Z,55.95
2018-05-12T16:45:55.616Z,55.31
2018-05-12T16:48:58.918Z,55.73
2018-05-12T16:52:02.249Z,55.57
2018-05-12T16:55:05.557Z,55.22
2018-05-12T16:58:08.896Z,55.79
2018-05-12T17:01:12.212Z,55.93
2018-05-12T17:04:16.306Z,56.02
2018-05-12T17:07:19.625Z,56.70
2018-05-12T17:10:22.956Z,57.08
2018-05-12T17:13:26.268Z,58.11
2018-05-12T17:16:29.580Z,58.02
2018-05-12T17:19:32.877Z,59.22
2018-05-12T17:22:36.213Z,58.80
2018-05-12T17:25:40.289Z,58.89
2018-05-12T17:28:43.627Z,59.36
2018-05-12T17:31:47.723Z,59.59
2018-05-12T17:34:51.050Z,59.30
2018-05-12T17:37:54.400Z,59.01
2018-05-12T17:40:57.710Z,59.29
2018-05-12T17:44:01.030Z,59.67
2018-05-12T17:47:05.120Z,59.40
2018-05-12T17:50:08.451Z,59.42
2018-05-12T17:53:11.765Z,59.70
2018-05-12T17:56:15.085Z,60.00
2018-05-12T17:59:18.412Z,60.22
2018-05-12T18:02:22.501Z,59.91
2018-05-12T18:05:25.805Z,60.26
2018-05-12T18:08:29.120Z,59.76
2018-05-12T18:11:32.452Z,60.23
2018-05-12T18:14:36.530Z,59.94
2018-05-12T18:17:39.846Z,59.70
2018-05-12T18:20:43.929Z,59.91
2018-05-12T18:23:47.225Z,59.93
2018-05-12T18:26:50.550Z,59.71
2018-05-12T18:29:54.612Z,60.12
2018-05-12T18:32:58.013Z,60.48
2018-05-12T18:36:01.254Z,59.54
2018-05-12T18:39:06.304Z,59.28
2018-05-12T18:42:09.548Z,59.34
2018-05-12T18:45:12.898Z,59.59
2018-05-12T18:48:17.152Z,59.79
2018-05-12T18:51:20.469Z,60.09
2018-05-12T18:54:23.812Z,60.05
2018-05-12T18:57:27.132Z,60.48
2018-05-12T19:00:31.222Z,60.37
2018-05-12T19:03:34.533Z,60.50
2018-05-12T19:06:37.858Z,60.86
2018-05-12T19:09:41.167Z,61.30
2018-05-12T19:12:44.480Z,61.33
2018-05-12T19:15:47.791Z,61.65
2018-05-12T19:18:51.868Z,61.64
2018-05-12T19:21:55.189Z,61.43
2018-05-12T19:24:58.494Z,61.56
2018-05-12T19:28:02.572Z,61.87
2018-05-12T19:31:05.949Z,62.06
2018-05-12T19:34:09.226Z,62.10
2018-05-12T19:37:12.530Z,62.82
2018-05-12T19:40:15.866Z,62.39
2018-05-12T19:43:19.189Z,62.26
2018-05-12T19:46:22.497Z,62.47
2018-05-12T19:49:26.577Z,62.51
2018-05-12T19:52:29.908Z,62.83
2018-05-12T19:55:33.990Z,62.82
2018-05-12T19:58:37.309Z,62.38
2018-05-12T20:01:41.427Z,62.46
2018-05-12T20:04:45.502Z,62.40
2018-05-12T20:07:48.825Z,62.62
2018-05-12T20:10:52.142Z,63.25
2018-05-12T20:13:56.214Z,63.94
2018-05-12T20:16:59.527Z,64.31
2018-05-12T20:20:02.846Z,65.00
2018-05-12T20:23:06.919Z,65.11
2018-05-12T20:26:10.245Z,65.65
2018-05-12T20:29:13.558Z,65.81
2018-05-12T20:32:17.637Z,66.43
2018-05-12T20:35:20.945Z,66.53
2018-05-12T20:38:24.271Z,67.00
2018-05-12T20:41:27.590Z,67.27
2018-05-12T20:44:31.693Z,67.57
2018-05-12T20:47:35.064Z,67.74
2018-05-12T20:50:38.318Z,67.87
2018-05-12T20:53:41.650Z,68.25
2018-05-12T20:56:44.966Z,69.23
2018-05-12T20:59:48.300Z,69.53
2018-05-12T21:02:51.609Z,70.17
2018-05-12T21:05:54.950Z,70.54
2018-05-12T21:08:59.026Z,70.25
2018-05-12T21:12:02.345Z,69.92
2018-05-12T21:15:05.665Z,70.02
2018-05-12T21:18:08.978Z,70.56
2018-05-12T21:21:12.302Z,70.86
2018-05-12T21:24:15.605Z,71.30
2018-05-12T21:27:18.930Z,71.71
2018-05-12T21:30:22.237Z,72.13
2018-05-12T21:33:26.339Z,72.46
2018-05-12T21:36:30.434Z,72.57
2018-05-12T21:39:33.758Z,72.68
2018-05-12T21:42:37.066Z,72.62
2018-05-12T21:45:41.157Z,72.79
2018-05-12T21:48:44.478Z,72.82
2018-05-12T21:51:48.582Z,72.95
2018-05-12T21:54:52.663Z,72.98
2018-05-12T21:57:55.987Z,73.25
2018-05-12T22:00:59.303Z,73.06
2018-05-12T22:04:03.409Z,72.98
2018-05-12T22:07:07.489Z,72.93
2018-05-12T22:10:10.810Z,72.85
2018-05-12T22:13:14.121Z,72.76
2018-05-12T22:16:18.204Z,72.63
2018-05-12T22:19:21.510Z,72.45
2018-05-12T22:22:24.829Z,72.74
2018-05-12T22:25:28.896Z,72.68
2018-05-12T22:28:32.222Z,72.47
2018-05-12T22:31:35.530Z,72.39
2018-05-12T22:34:39.625Z,72.52
2018-05-12T22:37:42.930Z,72.57
2018-05-12T22:40:46.248Z,72.49
2018-05-12T22:43:50.343Z,72.47
2018-05-12T22:46:53.650Z,72.64
2018-05-12T22:49:57.744Z,72.69
2018-05-12T22:53:01.056Z,72.94
2018-05-12T22:56:05.132Z,73.04
2018-05-12T22:59:08.553Z,73.18
2018-05-12T23:02:11.857Z,73.31
2018-05-12T23:05:16.033Z,73.45
2018-05-12T23:08:19.373Z,73.51
2018-05-12T23:11:22.682Z,73.70
2018-05-12T23:14:26.769Z,74.06
2018-05-12T23:17:30.085Z,74.35
2018-05-12T23:20:33.422Z,74.49
2018-05-12T23:23:36.730Z,75.04
2018-05-12T23:26:40.046Z,75.22
2018-05-12T23:29:43.353Z,75.49
2018-05-12T23:32:46.669Z,76.12
2018-05-12T23:35:50.750Z,76.37
2018-05-12T23:38:54.069Z,76.52
2018-05-12T23:41:57.400Z,77.45
2018-05-12T23:45:00.709Z,77.80
2018-05-12T23:48:04.025Z,78.05
2018-05-12T23:51:07.336Z,78.40
2018-05-12T23:54:10.662Z,78.76
2018-05-12T23:57:13.973Z,78.96
